sensor_id;sensor_type;location;lat;lon;timestamp;pressure;altitude;pressure_sealevel;temperature;humidity
69411;BME280;56604;48.652;9.194;2022-12-24T00:00:12;95785.38;;;9.43;87.45
69411;BME280;56604;48.652;9.194;2022-12-24T00:02:38;95801.63;;;9.40;87.95
69411;BME280;56604;48.652;9.194;2022-12-24T00:05:03;95796.66;;;9.44;87.28
69411;BME280;56604;48.652;9.194;2022-12-24T00:07:29;95808.75;;;9.45;87.87
69411;BME280;56604;48.652;9.194;2022-12-24T00:09:54;95801.69;;;9.51;86.74
69411;BME280;56604;48.652;9.194;2022-12-24T00:12:19;95798.03;;;9.52;86.04
69411;BME280;56604;48.652;9.194;2022-12-24T00:14:45;95795.38;;;9.46;86.39
69411;BME280;56604;48.652;9.194;2022-12-24T00:17:10;95800.09;;;9.50;86.20
69411;BME280;56604;48.652;9.194;2022-12-24T00:19:35;95791.72;;;9.53;86.27
69411;BME280;56604;48.652;9.194;2022-12-24T00:22:01;95800.56;;;9.41;86.80
69411;BME280;56604;48.652;9.194;2022-12-24T00:24:26;95814.97;;;9.34;86.40
69411;BME280;56604;48.652;9.194;2022-12-24T00:26:51;95815.19;;;9.32;86.97
69411;BME280;56604;48.652;9.194;2022-12-24T00:29:16;95819.94;;;9.35;86.42
69411;BME280;56604;48.652;9.194;2022-12-24T00:31:42;95821.53;;;9.36;85.72
69411;BME280;56604;48.652;9.194;2022-12-24T00:34:07;95821.50;;;9.31;86.77
69411;BME280;56604;48.652;9.194;2022-12-24T00:36:33;95821.75;;;9.30;86.30
69411;BME280;56604;48.652;9.194;2022-12-24T00:38:58;95814.13;;;9.28;86.00
69411;BME280;56604;48.652;9.194;2022-12-24T00:41:23;95813.53;;;9.21;87.01
69411;BME280;56604;48.652;9.194;2022-12-24T00:43:57;95817.22;;;9.20;86.94
69411;BME280;56604;48.652;9.194;2022-12-24T00:46:25;95827.94;;;9.18;86.44
69411;BME280;56604;48.652;9.194;2022-12-24T00:48:51;95827.91;;;9.13;86.71
69411;BME280;56604;48.652;9.194;2022-12-24T00:51:16;95834.94;;;9.08;87.16
69411;BME280;56604;48.652;9.194;2022-12-24T00:53:42;95832.84;;;9.10;86.82
69411;BME280;56604;48.652;9.194;2022-12-24T00:56:08;95833.56;;;9.00;86.97
69411;BME280;56604;48.652;9.194;2022-12-24T00:58:34;95828.31;;;9.00;86.78
69411;BME280;56604;48.652;9.194;2022-12-24T01:00:59;95834.56;;;8.94;87.18
69411;BME280;56604;48.652;9.194;2022-12-24T01:03:25;95827.47;;;8.94;87.42
69411;BME280;56604;48.652;9.194;2022-12-24T01:06:03;95836.34;;;8.88;87.47
69411;BME280;56604;48.652;9.194;2022-12-24T01:08:29;95838.41;;;8.86;87.62
69411;BME280;56604;48.652;9.194;2022-12-24T01:10:55;95846.22;;;8.81;88.03
69411;BME280;56604;48.652;9.194;2022-12-24T01:13:20;95860.09;;;8.82;87.47
69411;BME280;56604;48.652;9.194;2022-12-24T01:15:45;95863.22;;;8.78;88.28
69411;BME280;56604;48.652;9.194;2022-12-24T01:18:11;95871.88;;;8.79;87.61
69411;BME280;56604;48.652;9.194;2022-12-24T01:20:36;95894.97;;;8.82;87.46
69411;BME280;56604;48.652;9.194;2022-12-24T01:23:01;95893.09;;;8.77;88.23
69411;BME280;56604;48.652;9.194;2022-12-24T01:25:27;95892.31;;;8.77;88.51
69411;BME280;56604;48.652;9.194;2022-12-24T01:27:52;95889.44;;;8.78;88.43
69411;BME280;56604;48.652;9.194;2022-12-24T01:30:17;95892.00;;;8.73;87.47
69411;BME280;56604;48.652;9.194;2022-12-24T01:32:43;95900.69;;;8.74;87.36
69411;BME280;56604;48.652;9.194;2022-12-24T01:35:08;95898.34;;;8.77;87.97
69411;BME280;56604;48.652;9.194;2022-12-24T01:37:34;95893.34;;;8.76;88.06
69411;BME280;56604;48.652;9.194;2022-12-24T01:39:59;95901.69;;;8.73;88.30
69411;BME280;56604;48.652;9.194;2022-12-24T01:42:46;95890.91;;;8.69;88.24
69411;BME280;56604;48.652;9.194;2022-12-24T01:45:42;95897.78;;;8.75;87.77
69411;BME280;56604;48.652;9.194;2022-12-24T01:50:58;95914.28;;;8.71;88.39
69411;BME280;56604;48.652;9.194;2022-12-24T01:53:24;95931.63;;;8.77;88.22
69411;BME280;56604;48.652;9.194;2022-12-24T01:55:50;95937.88;;;8.76;88.70
69411;BME280;56604;48.652;9.194;2022-12-24T01:58:17;95944.47;;;8.78;88.75
69411;BME280;56604;48.652;9.194;2022-12-24T02:00:44;95941.84;;;8.78;87.67
69411;BME280;56604;48.652;9.194;2022-12-24T02:03:10;95949.16;;;8.76;86.90
69411;BME280;56604;48.652;9.194;2022-12-24T02:05:41;95952.34;;;8.78;87.31
69411;BME280;56604;48.652;9.194;2022-12-24T02:08:09;95949.78;;;8.84;86.99
69411;BME280;56604;48.652;9.194;2022-12-24T02:10:35;95956.31;;;8.81;87.08
69411;BME280;56604;48.652;9.194;2022-12-24T02:13:01;95955.81;;;8.84;87.40
69411;BME280;56604;48.652;9.194;2022-12-24T02:15:38;95959.53;;;8.88;87.47
69411;BME280;56604;48.652;9.194;2022-12-24T02:18:14;95958.00;;;8.92;87.35
69411;BME280;56604;48.652;9.194;2022-12-24T02:26:17;95964.81;;;8.93;85.85
69411;BME280;56604;48.652;9.194;2022-12-24T02:29:02;95970.56;;;8.90;86.59
69411;BME280;56604;48.652;9.194;2022-12-24T02:31:49;95983.38;;;8.87;87.21
69411;BME280;56604;48.652;9.194;2022-12-24T02:34:29;95980.94;;;8.80;86.91
69411;BME280;56604;48.652;9.194;2022-12-24T02:37:16;95984.72;;;8.89;86.94
69411;BME280;56604;48.652;9.194;2022-12-24T02:39:50;95978.97;;;8.92;86.62
69411;BME280;56604;48.652;9.194;2022-12-24T02:42:21;95977.41;;;8.91;86.89
69411;BME280;56604;48.652;9.194;2022-12-24T02:44:59;95971.28;;;9.08;86.25
69411;BME280;56604;48.652;9.194;2022-12-24T02:47:27;95984.44;;;9.13;85.46
69411;BME280;56604;48.652;9.194;2022-12-24T02:49:53;95994.94;;;9.13;85.39
69411;BME280;56604;48.652;9.194;2022-12-24T02:52:41;96001.94;;;9.07;85.83
69411;BME280;56604;48.652;9.194;2022-12-24T02:57:43;96013.34;;;9.18;85.26
69411;BME280;56604;48.652;9.194;2022-12-24T03:00:16;96008.53;;;9.10;85.35
69411;BME280;56604;48.652;9.194;2022-12-24T03:03:06;96032.75;;;9.17;86.27
69411;BME280;56604;48.652;9.194;2022-12-24T03:05:55;96029.03;;;9.13;87.30
69411;BME280;56604;48.652;9.194;2022-12-24T03:13:21;96017.88;;;9.00;87.72
69411;BME280;56604;48.652;9.194;2022-12-24T03:15:47;96022.97;;;8.90;88.35
69411;BME280;56604;48.652;9.194;2022-12-24T03:18:16;96021.91;;;8.86;88.51
69411;BME280;56604;48.652;9.194;2022-12-24T03:20:49;96018.50;;;8.86;88.68
69411;BME280;56604;48.652;9.194;2022-12-24T03:23:17;96020.75;;;8.77;88.46
69411;BME280;56604;48.652;9.194;2022-12-24T03:25:43;96023.34;;;8.77;88.40
69411;BME280;56604;48.652;9.194;2022-12-24T03:28:11;96052.22;;;8.82;88.81
69411;BME280;56604;48.652;9.194;2022-12-24T03:30:40;96056.16;;;8.80;88.48
69411;BME280;56604;48.652;9.194;2022-12-24T03:33:05;96061.81;;;8.71;88.74
69411;BME280;56604;48.652;9.194;2022-12-24T03:35:31;96059.41;;;8.70;89.45
69411;BME280;56604;48.652;9.194;2022-12-24T03:37:56;96044.66;;;8.64;89.71
69411;BME280;56604;48.652;9.194;2022-12-24T03:40:21;96036.63;;;8.70;89.60
69411;BME280;56604;48.652;9.194;2022-12-24T03:42:47;96041.00;;;8.65;89.61
69411;BME280;56604;48.652;9.194;2022-12-24T03:45:12;96049.59;;;8.60;89.96
69411;BME280;56604;48.652;9.194;2022-12-24T03:47:37;96058.81;;;8.63;89.36
69411;BME280;56604;48.652;9.194;2022-12-24T03:50:03;96065.78;;;8.74;89.27
69411;BME280;56604;48.652;9.194;2022-12-24T03:52:28;96056.78;;;8.70;89.77
69411;BME280;56604;48.652;9.194;2022-12-24T03:54:53;96056.00;;;8.69;89.70
69411;BME280;56604;48.652;9.194;2022-12-24T03:57:19;96047.84;;;8.66;88.98
69411;BME280;56604;48.652;9.194;2022-12-24T03:59:44;96050.69;;;8.64;89.15
69411;BME280;56604;48.652;9.194;2022-12-24T04:02:09;96050.47;;;8.66;89.63
69411;BME280;56604;48.652;9.194;2022-12-24T04:04:35;96051.00;;;8.68;89.92
69411;BME280;56604;48.652;9.194;2022-12-24T04:07:03;96042.19;;;8.74;88.89
69411;BME280;56604;48.652;9.194;2022-12-24T04:09:29;96040.34;;;8.74;88.42
69411;BME280;56604;48.652;9.194;2022-12-24T04:11:54;96039.69;;;8.84;88.72
69411;BME280;56604;48.652;9.194;2022-12-24T04:14:20;96045.97;;;8.83;87.87
69411;BME280;56604;48.652;9.194;2022-12-24T04:16:45;96052.22;;;8.82;88.79
69411;BME280;56604;48.652;9.194;2022-12-24T04:19:10;96055.59;;;8.77;88.80
69411;BME280;56604;48.652;9.194;2022-12-24T04:21:35;96045.13;;;8.77;87.81
69411;BME280;56604;48.652;9.194;2022-12-24T04:24:01;96041.16;;;8.75;88.63
69411;BME280;56604;48.652;9.194;2022-12-24T04:26:26;96057.66;;;8.75;88.01
69411;BME280;56604;48.652;9.194;2022-12-24T04:28:51;96070.94;;;8.69;87.86
69411;BME280;56604;48.652;9.194;2022-12-24T04:31:17;96057.19;;;8.62;88.42
69411;BME280;56604;48.652;9.194;2022-12-24T04:33:43;96049.03;;;8.58;88.06
69411;BME280;56604;48.652;9.194;2022-12-24T04:36:12;96029.28;;;8.50;88.52
69411;BME280;56604;48.652;9.194;2022-12-24T04:38:37;96040.56;;;8.51;89.04
69411;BME280;56604;48.652;9.194;2022-12-24T04:41:05;96051.88;;;8.56;88.63
69411;BME280;56604;48.652;9.194;2022-12-24T04:43:31;96052.84;;;8.50;90.01
69411;BME280;56604;48.652;9.194;2022-12-24T04:46:06;96053.88;;;8.49;89.48
69411;BME280;56604;48.652;9.194;2022-12-24T04:48:33;96057.56;;;8.48;88.93
69411;BME280;56604;48.652;9.194;2022-12-24T04:51:02;96067.06;;;8.54;88.81
69411;BME280;56604;48.652;9.194;2022-12-24T04:53:29;96062.84;;;8.53;89.24
69411;BME280;56604;48.652;9.194;2022-12-24T04:55:54;96068.66;;;8.55;89.00
69411;BME280;56604;48.652;9.194;2022-12-24T04:58:19;96061.53;;;8.51;88.56
69411;BME280;56604;48.652;9.194;2022-12-24T05:00:45;96075.25;;;8.41;89.18
69411;BME280;56604;48.652;9.194;2022-12-24T05:03:10;96087.22;;;8.37;88.80
69411;BME280;56604;48.652;9.194;2022-12-24T05:05:35;96077.88;;;8.41;88.81
69411;BME280;56604;48.652;9.194;2022-12-24T05:08:01;96069.09;;;8.36;88.37
69411;BME280;56604;48.652;9.194;2022-12-24T05:10:26;96086.34;;;8.31;89.22
69411;BME280;56604;48.652;9.194;2022-12-24T05:12:51;96086.00;;;8.28;89.76
69411;BME280;56604;48.652;9.194;2022-12-24T05:15:17;96076.66;;;8.32;89.40
69411;BME280;56604;48.652;9.194;2022-12-24T05:17:42;96075.63;;;8.33;88.67
69411;BME280;56604;48.652;9.194;2022-12-24T05:20:08;96078.78;;;8.35;88.21
69411;BME280;56604;48.652;9.194;2022-12-24T05:22:33;96074.22;;;8.42;89.42
69411;BME280;56604;48.652;9.194;2022-12-24T05:25:17;96089.91;;;8.42;88.57
69411;BME280;56604;48.652;9.194;2022-12-24T05:28:01;96092.00;;;8.40;88.75
69411;BME280;56604;48.652;9.194;2022-12-24T05:30:26;96093.59;;;8.41;88.76
69411;BME280;56604;48.652;9.194;2022-12-24T05:32:52;96086.59;;;8.47;88.50
69411;BME280;56604;48.652;9.194;2022-12-24T05:35:17;96088.03;;;8.54;88.36
69411;BME280;56604;48.652;9.194;2022-12-24T05:37:42;96100.25;;;8.49;88.10
69411;BME280;56604;48.652;9.194;2022-12-24T05:40:08;96089.78;;;8.49;88.78
69411;BME280;56604;48.652;9.194;2022-12-24T05:42:33;96080.00;;;8.44;88.72
69411;BME280;56604;48.652;9.194;2022-12-24T05:44:59;96079.44;;;8.42;88.45
69411;BME280;56604;48.652;9.194;2022-12-24T05:47:24;96085.38;;;8.38;87.99
69411;BME280;56604;48.652;9.194;2022-12-24T05:49:49;96085.53;;;8.31;88.71
69411;BME280;56604;48.652;9.194;2022-12-24T05:52:14;96084.44;;;8.27;89.11
69411;BME280;56604;48.652;9.194;2022-12-24T05:54:40;96099.09;;;8.28;89.56
69411;BME280;56604;48.652;9.194;2022-12-24T05:57:05;96094.41;;;8.30;90.10
69411;BME280;56604;48.652;9.194;2022-12-24T05:59:30;96092.28;;;8.27;89.14
69411;BME280;56604;48.652;9.194;2022-12-24T06:01:56;96098.09;;;8.29;88.76
69411;BME280;56604;48.652;9.194;2022-12-24T06:04:21;96098.38;;;8.16;89.11
69411;BME280;56604;48.652;9.194;2022-12-24T06:06:46;96097.03;;;8.13;89.33
69411;BME280;56604;48.652;9.194;2022-12-24T06:09:11;96083.16;;;8.13;89.79
69411;BME280;56604;48.652;9.194;2022-12-24T06:11:37;96086.94;;;8.05;90.06
69411;BME280;56604;48.652;9.194;2022-12-24T06:14:02;96096.25;;;8.13;89.83
69411;BME280;56604;48.652;9.194;2022-12-24T06:16:28;96102.34;;;8.01;89.90
69411;BME280;56604;48.652;9.194;2022-12-24T06:18:54;96098.13;;;8.00;90.56
69411;BME280;56604;48.652;9.194;2022-12-24T06:21:19;96095.03;;;8.03;91.28
69411;BME280;56604;48.652;9.194;2022-12-24T06:23:45;96091.28;;;7.99;90.31
69411;BME280;56604;48.652;9.194;2022-12-24T06:26:13;96099.31;;;7.93;90.96
69411;BME280;56604;48.652;9.194;2022-12-24T06:28:39;96103.19;;;7.90;91.25
69411;BME280;56604;48.652;9.194;2022-12-24T06:31:05;96102.38;;;7.89;91.79
69411;BME280;56604;48.652;9.194;2022-12-24T06:33:32;96112.38;;;7.93;91.26
69411;BME280;56604;48.652;9.194;2022-12-24T06:35:57;96120.03;;;7.94;91.93
69411;BME280;56604;48.652;9.194;2022-12-24T06:38:23;96123.66;;;7.93;91.27
69411;BME280;56604;48.652;9.194;2022-12-24T06:40:48;96118.41;;;7.93;91.01
69411;BME280;56604;48.652;9.194;2022-12-24T06:43:15;96129.19;;;7.97;90.89
69411;BME280;56604;48.652;9.194;2022-12-24T06:45:45;96140.97;;;7.94;91.18
69411;BME280;56604;48.652;9.194;2022-12-24T06:48:11;96141.28;;;7.98;91.43
69411;BME280;56604;48.652;9.194;2022-12-24T06:50:37;96138.78;;;7.91;90.72
69411;BME280;56604;48.652;9.194;2022-12-24T06:53:03;96148.56;;;7.96;90.59
69411;BME280;56604;48.652;9.194;2022-12-24T06:55:28;96149.81;;;7.93;90.67
69411;BME280;56604;48.652;9.194;2022-12-24T06:57:53;96168.72;;;7.95;91.29
69411;BME280;56604;48.652;9.194;2022-12-24T07:00:19;96160.50;;;8.03;90.57
69411;BME280;56604;48.652;9.194;2022-12-24T07:02:46;96162.84;;;8.05;90.70
69411;BME280;56604;48.652;9.194;2022-12-24T07:05:12;96161.59;;;8.07;89.80
69411;BME280;56604;48.652;9.194;2022-12-24T07:07:40;96176.84;;;8.10;89.89
69411;BME280;56604;48.652;9.194;2022-12-24T07:10:06;96168.97;;;8.10;89.97
69411;BME280;56604;48.652;9.194;2022-12-24T07:12:32;96168.75;;;8.12;89.70
69411;BME280;56604;48.652;9.194;2022-12-24T07:14:58;96172.47;;;8.16;89.80
69411;BME280;56604;48.652;9.194;2022-12-24T07:17:23;96178.75;;;8.15;89.75
69411;BME280;56604;48.652;9.194;2022-12-24T07:19:48;96186.03;;;8.13;88.89
69411;BME280;56604;48.652;9.194;2022-12-24T07:22:14;96182.25;;;8.21;89.55
69411;BME280;56604;48.652;9.194;2022-12-24T07:24:40;96193.94;;;8.30;88.74
69411;BME280;56604;48.652;9.194;2022-12-24T07:27:05;96204.03;;;8.38;89.21
69411;BME280;56604;48.652;9.194;2022-12-24T07:29:30;96207.81;;;8.30;88.28
69411;BME280;56604;48.652;9.194;2022-12-24T07:31:55;96206.06;;;8.19;88.59
69411;BME280;56604;48.652;9.194;2022-12-24T07:34:21;96209.50;;;8.20;87.88
69411;BME280;56604;48.652;9.194;2022-12-24T07:36:46;96218.13;;;8.20;87.78
69411;BME280;56604;48.652;9.194;2022-12-24T07:39:11;96229.97;;;8.23;87.66
69411;BME280;56604;48.652;9.194;2022-12-24T07:41:37;96216.31;;;8.21;87.07
69411;BME280;56604;48.652;9.194;2022-12-24T07:44:02;96218.78;;;8.27;86.85
69411;BME280;56604;48.652;9.194;2022-12-24T07:46:27;96224.16;;;8.21;87.13
69411;BME280;56604;48.652;9.194;2022-12-24T07:48:53;96217.78;;;8.17;88.21
69411;BME280;56604;48.652;9.194;2022-12-24T07:51:18;96221.22;;;8.17;87.38
69411;BME280;56604;48.652;9.194;2022-12-24T07:53:43;96215.75;;;8.19;88.09
69411;BME280;56604;48.652;9.194;2022-12-24T07:56:13;96214.66;;;8.31;87.30
69411;BME280;56604;48.652;9.194;2022-12-24T07:58:39;96217.50;;;8.30;86.55
69411;BME280;56604;48.652;9.194;2022-12-24T08:01:05;96227.53;;;8.33;86.88
69411;BME280;56604;48.652;9.194;2022-12-24T08:03:30;96224.56;;;8.41;86.79
69411;BME280;56604;48.652;9.194;2022-12-24T08:05:55;96235.22;;;8.51;85.58
69411;BME280;56604;48.652;9.194;2022-12-24T08:08:22;96231.88;;;8.56;86.46
69411;BME280;56604;48.652;9.194;2022-12-24T08:10:47;96232.66;;;8.56;85.15
69411;BME280;56604;48.652;9.194;2022-12-24T08:13:13;96221.28;;;8.63;85.06
69411;BME280;56604;48.652;9.194;2022-12-24T08:15:38;96230.22;;;8.67;83.81
69411;BME280;56604;48.652;9.194;2022-12-24T08:18:04;96229.38;;;8.78;84.78
69411;BME280;56604;48.652;9.194;2022-12-24T08:20:29;96236.66;;;8.76;84.57
69411;BME280;56604;48.652;9.194;2022-12-24T08:22:54;96237.00;;;8.80;84.09
69411;BME280;56604;48.652;9.194;2022-12-24T08:25:20;96229.38;;;8.78;83.66
69411;BME280;56604;48.652;9.194;2022-12-24T08:27:45;96238.91;;;8.84;82.88
69411;BME280;56604;48.652;9.194;2022-12-24T08:30:11;96237.63;;;8.87;83.40
69411;BME280;56604;48.652;9.194;2022-12-24T08:32:36;96232.00;;;8.95;82.24
69411;BME280;56604;48.652;9.194;2022-12-24T08:35:02;96242.00;;;8.81;82.31
69411;BME280;56604;48.652;9.194;2022-12-24T08:37:27;96248.03;;;8.98;81.61
69411;BME280;56604;48.652;9.194;2022-12-24T08:39:53;96239.31;;;8.93;81.06
69411;BME280;56604;48.652;9.194;2022-12-24T08:42:18;96248.78;;;9.11;81.04
69411;BME280;56604;48.652;9.194;2022-12-24T08:44:43;96263.38;;;9.07;80.59
69411;BME280;56604;48.652;9.194;2022-12-24T08:47:09;96253.84;;;9.17;80.85
69411;BME280;56604;48.652;9.194;2022-12-24T08:49:34;96263.06;;;9.20;80.44
69411;BME280;56604;48.652;9.194;2022-12-24T08:51:59;96263.78;;;9.15;80.81
69411;BME280;56604;48.652;9.194;2022-12-24T08:54:25;96268.81;;;9.17;79.91
69411;BME280;56604;48.652;9.194;2022-12-24T08:56:50;96263.94;;;9.09;80.58
69411;BME280;56604;48.652;9.194;2022-12-24T08:59:16;96269.81;;;9.16;79.44
69411;BME280;56604;48.652;9.194;2022-12-24T09:01:41;96283.50;;;9.18;79.90
69411;BME280;56604;48.652;9.194;2022-12-24T09:04:06;96282.31;;;9.09;80.68
69411;BME280;56604;48.652;9.194;2022-12-24T09:06:32;96276.72;;;9.22;80.66
69411;BME280;56604;48.652;9.194;2022-12-24T09:08:58;96283.72;;;9.33;80.58
69411;BME280;56604;48.652;9.194;2022-12-24T09:11:24;96282.41;;;9.31;80.56
69411;BME280;56604;48.652;9.194;2022-12-24T09:13:49;96286.72;;;9.42;79.48
69411;BME280;56604;48.652;9.194;2022-12-24T09:16:15;96284.03;;;9.54;79.54
69411;BME280;56604;48.652;9.194;2022-12-24T09:18:41;96281.13;;;9.72;79.15
69411;BME280;56604;48.652;9.194;2022-12-24T09:21:09;96292.47;;;9.95;78.10
69411;BME280;56604;48.652;9.194;2022-12-24T09:23:37;96291.47;;;10.01;77.52
69411;BME280;56604;48.652;9.194;2022-12-24T09:26:08;96295.75;;;10.07;76.78
69411;BME280;56604;48.652;9.194;2022-12-24T09:28:33;96302.25;;;9.99;77.31
69411;BME280;56604;48.652;9.194;2022-12-24T09:31:01;96309.84;;;10.01;76.89
69411;BME280;56604;48.652;9.194;2022-12-24T09:33:28;96300.97;;;10.02;76.21
69411;BME280;56604;48.652;9.194;2022-12-24T09:35:54;96302.16;;;9.94;76.48
69411;BME280;56604;48.652;9.194;2022-12-24T09:38:20;96303.63;;;9.85;77.27
69411;BME280;56604;48.652;9.194;2022-12-24T09:40:45;96307.69;;;9.76;76.58
69411;BME280;56604;48.652;9.194;2022-12-24T09:43:20;96298.69;;;9.88;76.21
69411;BME280;56604;48.652;9.194;2022-12-24T09:46:08;96304.19;;;9.70;77.06
69411;BME280;56604;48.652;9.194;2022-12-24T09:48:41;96312.41;;;9.74;77.46
69411;BME280;56604;48.652;9.194;2022-12-24T09:51:11;96318.81;;;9.83;77.61
69411;BME280;56604;48.652;9.194;2022-12-24T09:54:05;96307.38;;;9.72;77.47
69411;BME280;56604;48.652;9.194;2022-12-24T09:56:39;96308.34;;;9.66;77.33
69411;BME280;56604;48.652;9.194;2022-12-24T09:59:21;96311.84;;;9.55;78.54
69411;BME280;56604;48.652;9.194;2022-12-24T10:01:49;96319.66;;;9.50;77.98
69411;BME280;56604;48.652;9.194;2022-12-24T10:04:17;96316.16;;;9.61;77.84
69411;BME280;56604;48.652;9.194;2022-12-24T10:06:49;96328.22;;;9.62;78.53
69411;BME280;56604;48.652;9.194;2022-12-24T10:09:20;96318.16;;;9.93;76.90
69411;BME280;56604;48.652;9.194;2022-12-24T10:11:55;96315.44;;;10.26;76.95
69411;BME280;56604;48.652;9.194;2022-12-24T10:28:22;96308.03;;;11.26;72.42
69411;BME280;56604;48.652;9.194;2022-12-24T10:30:49;96319.84;;;11.19;72.38
69411;BME280;56604;48.652;9.194;2022-12-24T10:33:28;96318.03;;;11.24;72.65
69411;BME280;56604;48.652;9.194;2022-12-24T10:35:57;96326.47;;;11.26;72.42
69411;BME280;56604;48.652;9.194;2022-12-24T10:38:22;96324.16;;;11.35;71.72
69411;BME280;56604;48.652;9.194;2022-12-24T10:40:53;96329.47;;;11.40;71.55
69411;BME280;56604;48.652;9.194;2022-12-24T10:43:23;96326.63;;;11.47;71.84
69411;BME280;56604;48.652;9.194;2022-12-24T10:45:55;96316.75;;;11.27;71.01
69411;BME280;56604;48.652;9.194;2022-12-24T10:48:43;96309.81;;;11.16;72.63
69411;BME280;56604;48.652;9.194;2022-12-24T10:51:14;96319.72;;;11.09;71.88
69411;BME280;56604;48.652;9.194;2022-12-24T10:53:48;96319.41;;;11.32;71.93
69411;BME280;56604;48.652;9.194;2022-12-24T10:56:18;96313.94;;;11.39;71.73
69411;BME280;56604;48.652;9.194;2022-12-24T10:58:49;96318.69;;;11.42;71.95
69411;BME280;56604;48.652;9.194;2022-12-24T11:01:14;96321.84;;;11.39;70.75
69411;BME280;56604;48.652;9.194;2022-12-24T11:03:40;96322.34;;;11.41;71.06
69411;BME280;56604;48.652;9.194;2022-12-24T11:08:33;96325.66;;;11.26;71.57
69411;BME280;56604;48.652;9.194;2022-12-24T11:11:04;96315.66;;;11.23;71.46
69411;BME280;56604;48.652;9.194;2022-12-24T11:13:33;96322.63;;;11.07;72.03
69411;BME280;56604;48.652;9.194;2022-12-24T11:16:28;96326.34;;;11.11;71.31
69411;BME280;56604;48.652;9.194;2022-12-24T11:18:56;96332.44;;;11.17;71.48
69411;BME280;56604;48.652;9.194;2022-12-24T11:21:25;96327.97;;;11.17;72.40
69411;BME280;56604;48.652;9.194;2022-12-24T11:23:57;96330.03;;;11.10;72.23
69411;BME280;56604;48.652;9.194;2022-12-24T11:26:26;96328.47;;;11.14;72.23
69411;BME280;56604;48.652;9.194;2022-12-24T11:29:12;96327.50;;;10.93;72.72
69411;BME280;56604;48.652;9.194;2022-12-24T11:31:39;96325.00;;;11.09;72.72
69411;BME280;56604;48.652;9.194;2022-12-24T11:34:24;96327.38;;;11.10;72.85
69411;BME280;56604;48.652;9.194;2022-12-24T11:36:52;96329.88;;;10.95;73.20
69411;BME280;56604;48.652;9.194;2022-12-24T11:39:23;96316.66;;;10.90;73.14
69411;BME280;56604;48.652;9.194;2022-12-24T11:41:49;96329.72;;;10.79;73.30
69411;BME280;56604;48.652;9.194;2022-12-24T11:44:23;96326.63;;;11.15;73.39
69411;BME280;56604;48.652;9.194;2022-12-24T11:46:48;96320.63;;;11.19;72.78
69411;BME280;56604;48.652;9.194;2022-12-24T11:49:22;96322.25;;;11.25;72.86
69411;BME280;56604;48.652;9.194;2022-12-24T11:52:03;96324.47;;;11.39;72.60
69411;BME280;56604;48.652;9.194;2022-12-24T11:55:06;96319.03;;;11.51;72.32
69411;BME280;56604;48.652;9.194;2022-12-24T11:57:51;96319.78;;;11.46;71.86
69411;BME280;56604;48.652;9.194;2022-12-24T12:00:18;96306.72;;;11.61;72.52
69411;BME280;56604;48.652;9.194;2022-12-24T12:02:47;96310.03;;;11.46;71.79
69411;BME280;56604;48.652;9.194;2022-12-24T12:05:32;96299.91;;;11.65;71.38
69411;BME280;56604;48.652;9.194;2022-12-24T12:08:17;96306.75;;;11.66;71.38
69411;BME280;56604;48.652;9.194;2022-12-24T12:10:44;96305.16;;;11.65;70.86
69411;BME280;56604;48.652;9.194;2022-12-24T12:15:40;96296.69;;;12.01;70.64
69411;BME280;56604;48.652;9.194;2022-12-24T12:18:15;96297.03;;;11.67;71.53
69411;BME280;56604;48.652;9.194;2022-12-24T12:20:45;96299.91;;;11.65;70.83
69411;BME280;56604;48.652;9.194;2022-12-24T12:23:20;96308.38;;;11.78;71.05
69411;BME280;56604;48.652;9.194;2022-12-24T12:26:07;96301.94;;;11.53;71.00
69411;BME280;56604;48.652;9.194;2022-12-24T12:31:41;96300.44;;;11.67;71.04
69411;BME280;56604;48.652;9.194;2022-12-24T12:34:19;96309.44;;;11.77;70.83
69411;BME280;56604;48.652;9.194;2022-12-24T12:36:50;96302.44;;;11.87;70.17
69411;BME280;56604;48.652;9.194;2022-12-24T12:39:18;96308.94;;;11.80;70.58
69411;BME280;56604;48.652;9.194;2022-12-24T12:42:25;96311.16;;;11.93;69.83
69411;BME280;56604;48.652;9.194;2022-12-24T12:45:12;96318.25;;;11.87;69.65
69411;BME280;56604;48.652;9.194;2022-12-24T12:50:32;96312.91;;;11.82;69.52
69411;BME280;56604;48.652;9.194;2022-12-24T12:53:26;96319.41;;;11.69;69.55
69411;BME280;56604;48.652;9.194;2022-12-24T12:58:48;96326.00;;;11.67;70.27
69411;BME280;56604;48.652;9.194;2022-12-24T13:01:24;96322.16;;;11.85;70.11
69411;BME280;56604;48.652;9.194;2022-12-24T13:07:00;96321.38;;;11.89;69.45
69411;BME280;56604;48.652;9.194;2022-12-24T13:17:51;96316.72;;;11.59;69.94
69411;BME280;56604;48.652;9.194;2022-12-24T13:20:28;96309.31;;;11.56;70.00
69411;BME280;56604;48.652;9.194;2022-12-24T13:22:56;96323.97;;;11.42;70.24
69411;BME280;56604;48.652;9.194;2022-12-24T13:25:28;96330.16;;;11.25;70.95
69411;BME280;56604;48.652;9.194;2022-12-24T13:27:54;96323.72;;;11.11;71.22
69411;BME280;56604;48.652;9.194;2022-12-24T13:30:37;96325.88;;;11.19;71.29
69411;BME280;56604;48.652;9.194;2022-12-24T13:33:03;96332.22;;;11.23;71.04
69411;BME280;56604;48.652;9.194;2022-12-24T13:35:31;96338.59;;;11.28;71.29
69411;BME280;56604;48.652;9.194;2022-12-24T13:40:51;96338.31;;;10.97;71.41
69411;BME280;56604;48.652;9.194;2022-12-24T13:43:16;96336.72;;;10.96;71.11
69411;BME280;56604;48.652;9.194;2022-12-24T13:45:46;96327.28;;;11.00;71.18
69411;BME280;56604;48.652;9.194;2022-12-24T13:53:22;96337.84;;;10.78;72.37
69411;BME280;56604;48.652;9.194;2022-12-24T13:55:55;96338.59;;;10.73;73.02
69411;BME280;56604;48.652;9.194;2022-12-24T13:58:23;96334.63;;;10.71;72.74
69411;BME280;56604;48.652;9.194;2022-12-24T14:01:01;96323.84;;;10.72;73.12
69411;BME280;56604;48.652;9.194;2022-12-24T14:06:26;96321.84;;;10.79;73.39
69411;BME280;56604;48.652;9.194;2022-12-24T14:09:07;96314.50;;;10.82;73.53
69411;BME280;56604;48.652;9.194;2022-12-24T14:14:32;96308.56;;;10.69;72.97
69411;BME280;56604;48.652;9.194;2022-12-24T14:17:22;96312.81;;;10.70;72.82
69411;BME280;56604;48.652;9.194;2022-12-24T14:19:58;96320.72;;;10.75;73.70
69411;BME280;56604;48.652;9.194;2022-12-24T14:22:35;96300.69;;;10.69;73.76
69411;BME280;56604;48.652;9.194;2022-12-24T14:25:08;96297.53;;;10.67;73.91